Blooming Grove, Texas
Current Conditions -  °F | °C
As of 6:53 AM on Friday 31 Oct 2014 (Local Time) from KCRS Reporting Station
Clear Clear  
Wind Chill: 57°   Ceiling: Unl
Heat Index: 57°   Visibility: 10mi
Dew Point: 43°   Wind: 12mph
Humidity: 59%   Direction: 350°N
Pressure: 30.22"   Gusts: NA
Location:  32.09°N, 96.72°W
Report Text: KCRS 311153Z AUTO 35010KT 10SM CLR 14/06 A3022 RMK AO2 SLP230 T01390061 10172 20139 53018
Loading
Personal Weather Stations






























Interactive Weather Map New forecast layout! Learn more

10-Day Weather Forecast

Advertisements
Track Severe Weather on mobile